Apache Creek, New Mexico
Current Conditions -  °F | °C
As of 6:54 PM on Monday 22 Dec 2014 (Local Time) from KSJN Reporting Station
Scattered Clouds Scattered Clouds  
Wind Chill: 44°   Ceiling: Unl
Heat Index: 49°   Visibility: 10mi
Dew Point: 31°   Wind: 12mph
Humidity: 50%   Direction: 290°WNW
Pressure: 29.88"   Gusts: NA
Location:  33.6665°N, 108.765°W
Report Text: KSJN 230154Z AUTO 29010KT 10SM SCT070 SCT090 09/M01 A2988 RMK AO2 SLP089 T00941006
Loading
Personal Weather Stations






























Interactive Weather Map New forecast layout! Learn more

10-Day Weather Forecast

Advertisements
Track Severe Weather on mobile